MTN7220 TNCC-TNCB
Flight info
| Callsign | MTN7220 |
|---|---|
| Flight time | 0h 17m |
| Altitude | 1000 |
| Route | VFR |
| Aircraft | C208/L-SDFGR/C |
Departure
| Time | 2026-04-22 13:00 |
|---|---|
| Airport | Hato International Airport (TNCC) |
Arrival
| Time | 2026-04-22 13:17 |
|---|---|
| Airport | Flamingo International Airport (TNCB) |
| Time | Latitude | Longitude | Altitude | Speed | Heading |
|---|---|---|---|---|---|
| 2026-04-22 12:38 | 12.18643 | -68.95978 | 42 ft | 0 kts | 282° |
| 2026-04-22 12:54 | 12.18647 | -68.95995 | 41 ft | 7 kts | 281° |
| 2026-04-22 12:55 | 12.18658 | -68.96005 | 41 ft | 5 kts | 14° |
| 2026-04-22 12:55 | 12.18711 | -68.96019 | 41 ft | 14 kts | 279° |
| 2026-04-22 12:55 | 12.18746 | -68.96145 | 41 ft | 23 kts | 284° |
| 2026-04-22 12:55 | 12.18784 | -68.96338 | 41 ft | 32 kts | 282° |
| 2026-04-22 12:56 | 12.18838 | -68.96587 | 40 ft | 39 kts | 282° |
| 2026-04-22 12:56 | 12.18899 | -68.96880 | 39 ft | 44 kts | 281° |
| 2026-04-22 12:56 | 12.18965 | -68.97192 | 39 ft | 46 kts | 282° |
| 2026-04-22 12:56 | 12.19030 | -68.97502 | 38 ft | 34 kts | 281° |
| 2026-04-22 12:57 | 12.19056 | -68.97585 | 38 ft | 13 kts | 331° |
| 2026-04-22 12:57 | 12.19178 | -68.97567 | 38 ft | 22 kts | 12° |
| 2026-04-22 12:57 | 12.19208 | -68.97490 | 38 ft | 0 kts | 99° |
| 2026-04-22 12:58 | 12.19208 | -68.97489 | 38 ft | 0 kts | 99° |
| 2026-04-22 12:59 | 12.19208 | -68.97485 | 38 ft | 6 kts | 100° |
| 2026-04-22 12:59 | 12.19164 | -68.97282 | 39 ft | 54 kts | 102° |
| 2026-04-22 12:59 | 12.19054 | -68.96795 | 104 ft | 81 kts | 100° |
| 2026-04-22 12:59 | 12.18948 | -68.96238 | 356 ft | 79 kts | 96° |
| 2026-04-22 13:00 | 12.18878 | -68.95626 | 470 ft | 101 kts | 91° |
| 2026-04-22 13:00 | 12.18852 | -68.94837 | 643 ft | 114 kts | 95° |
| 2026-04-22 13:00 | 12.18651 | -68.94032 | 916 ft | 123 kts | 103° |
| 2026-04-22 13:00 | 12.18410 | -68.93097 | 1006 ft | 140 kts | 101° |
| 2026-04-22 13:01 | 12.18253 | -68.92112 | 1203 ft | 143 kts | 94° |
| 2026-04-22 13:01 | 12.18165 | -68.91024 | 997 ft | 164 kts | 94° |
| 2026-04-22 13:01 | 12.18086 | -68.89839 | 951 ft | 163 kts | 94° |
| 2026-04-22 13:01 | 12.17990 | -68.88666 | 742 ft | 172 kts | 92° |
| 2026-04-22 13:02 | 12.17881 | -68.87462 | 848 ft | 160 kts | 94° |
| 2026-04-22 13:02 | 12.17786 | -68.86396 | 1157 ft | 148 kts | 93° |
| 2026-04-22 13:02 | 12.17706 | -68.85313 | 1108 ft | 159 kts | 94° |
| 2026-04-22 13:02 | 12.17617 | -68.84156 | 1074 ft | 166 kts | 94° |
| 2026-04-22 13:03 | 12.17541 | -68.82997 | 1144 ft | 162 kts | 90° |
| 2026-04-22 13:03 | 12.17521 | -68.81817 | 1100 ft | 167 kts | 94° |
| 2026-04-22 13:03 | 12.17448 | -68.80635 | 1114 ft | 165 kts | 92° |
| 2026-04-22 13:03 | 12.17378 | -68.79481 | 1120 ft | 160 kts | 93° |
| 2026-04-22 13:04 | 12.17326 | -68.78354 | 1122 ft | 158 kts | 92° |
| 2026-04-22 13:04 | 12.17267 | -68.77227 | 1122 ft | 160 kts | 92° |
| 2026-04-22 13:04 | 12.17206 | -68.76091 | 1126 ft | 159 kts | 92° |
| 2026-04-22 13:04 | 12.17154 | -68.74972 | 1129 ft | 157 kts | 92° |
| 2026-04-22 13:05 | 12.17105 | -68.73851 | 1124 ft | 158 kts | 92° |
| 2026-04-22 13:05 | 12.17070 | -68.72735 | 1123 ft | 157 kts | 92° |
| 2026-04-22 13:05 | 12.17029 | -68.71620 | 1128 ft | 158 kts | 92° |
| 2026-04-22 13:05 | 12.16981 | -68.70490 | 1130 ft | 160 kts | 92° |
| 2026-04-22 13:06 | 12.16945 | -68.69345 | 1137 ft | 162 kts | 91° |
| 2026-04-22 13:06 | 12.16897 | -68.68194 | 1134 ft | 161 kts | 92° |
| 2026-04-22 13:06 | 12.16856 | -68.67071 | 1132 ft | 162 kts | 92° |
| 2026-04-22 13:06 | 12.16819 | -68.65919 | 1133 ft | 162 kts | 91° |
| 2026-04-22 13:07 | 12.16769 | -68.64773 | 1134 ft | 161 kts | 92° |
| 2026-04-22 13:07 | 12.16725 | -68.63622 | 1138 ft | 163 kts | 92° |
| 2026-04-22 13:07 | 12.16695 | -68.62464 | 1134 ft | 162 kts | 91° |
| 2026-04-22 13:07 | 12.16649 | -68.61335 | 1139 ft | 160 kts | 92° |
| 2026-04-22 13:08 | 12.16541 | -68.60200 | 1136 ft | 162 kts | 100° |
| 2026-04-22 13:08 | 12.16285 | -68.59072 | 1133 ft | 163 kts | 102° |
| 2026-04-22 13:08 | 12.16030 | -68.57953 | 1136 ft | 160 kts | 102° |
| 2026-04-22 13:08 | 12.15788 | -68.56846 | 1143 ft | 160 kts | 101° |
| 2026-04-22 13:09 | 12.15541 | -68.55743 | 1134 ft | 159 kts | 102° |
| 2026-04-22 13:09 | 12.15292 | -68.54644 | 1134 ft | 158 kts | 102° |
| 2026-04-22 13:09 | 12.15039 | -68.53559 | 1132 ft | 158 kts | 101° |
| 2026-04-22 13:09 | 12.14764 | -68.52464 | 1130 ft | 159 kts | 103° |
| 2026-04-22 13:10 | 12.14496 | -68.51378 | 1125 ft | 157 kts | 102° |
| 2026-04-22 13:10 | 12.14238 | -68.50302 | 1126 ft | 155 kts | 98° |
| 2026-04-22 13:10 | 12.14126 | -68.49210 | 1127 ft | 154 kts | 92° |
| 2026-04-22 13:10 | 12.14067 | -68.48130 | 1128 ft | 150 kts | 93° |
| 2026-04-22 13:11 | 12.14016 | -68.47073 | 1133 ft | 149 kts | 92° |
| 2026-04-22 13:11 | 12.13965 | -68.46009 | 1130 ft | 150 kts | 91° |
| 2026-04-22 13:11 | 12.13894 | -68.44958 | 1130 ft | 147 kts | 93° |
| 2026-04-22 13:11 | 12.13844 | -68.43903 | 1128 ft | 150 kts | 92° |
| 2026-04-22 13:12 | 12.13795 | -68.42844 | 1123 ft | 149 kts | 92° |
| 2026-04-22 13:12 | 12.13732 | -68.41791 | 1123 ft | 149 kts | 92° |
| 2026-04-22 13:12 | 12.13678 | -68.40731 | 1124 ft | 150 kts | 91° |
| 2026-04-22 13:12 | 12.13610 | -68.39666 | 1122 ft | 150 kts | 91° |
| 2026-04-22 13:13 | 12.13551 | -68.38603 | 1120 ft | 150 kts | 91° |
| 2026-04-22 13:13 | 12.13504 | -68.37541 | 1126 ft | 150 kts | 92° |
| 2026-04-22 13:13 | 12.13452 | -68.36472 | 1125 ft | 151 kts | 93° |
| 2026-04-22 13:13 | 12.13423 | -68.35399 | 1122 ft | 150 kts | 91° |
| 2026-04-22 13:14 | 12.13385 | -68.34454 | 1120 ft | 114 kts | 92° |
| 2026-04-22 13:14 | 12.13342 | -68.33738 | 1110 ft | 89 kts | 92° |
| 2026-04-22 13:14 | 12.13317 | -68.33178 | 971 ft | 78 kts | 92° |
| 2026-04-22 13:14 | 12.13305 | -68.32618 | 772 ft | 79 kts | 92° |
| 2026-04-22 13:15 | 12.13276 | -68.32064 | 725 ft | 76 kts | 92° |
| 2026-04-22 13:15 | 12.13246 | -68.31553 | 603 ft | 68 kts | 90° |
| 2026-04-22 13:15 | 12.13245 | -68.31084 | 457 ft | 64 kts | 88° |
| 2026-04-22 13:15 | 12.13261 | -68.30644 | 408 ft | 60 kts | 91° |
| 2026-04-22 13:16 | 12.13242 | -68.30218 | 430 ft | 60 kts | 92° |
| 2026-04-22 13:16 | 12.13185 | -68.29779 | 423 ft | 66 kts | 92° |
| 2026-04-22 13:16 | 12.13167 | -68.29309 | 321 ft | 66 kts | 89° |
| 2026-04-22 13:16 | 12.13154 | -68.28846 | 250 ft | 64 kts | 89° |
| 2026-04-22 13:17 | 12.13142 | -68.28395 | 120 ft | 63 kts | 90° |
| 2026-04-22 13:17 | 12.13121 | -68.27942 | 30 ft | 63 kts | 89° |
| 2026-04-22 13:17 | 12.13105 | -68.27580 | 27 ft | 30 kts | 91° |
| 2026-04-22 13:17 | 12.13196 | -68.27502 | 26 ft | 17 kts | 0° |
| 2026-04-22 13:18 | 12.13285 | -68.27499 | 26 ft | 14 kts | 3° |
| 2026-04-22 13:18 | 12.13343 | -68.27496 | 26 ft | 0 kts | 0° |